createdAt,value
2017-11-08T00:00:01.347Z,16.17
2017-11-08T00:00:36.052Z,14.27
2017-11-08T00:01:10.766Z,12.20
2017-11-08T00:01:45.535Z,13.65
2017-11-08T00:02:20.284Z,15.77
2017-11-08T00:02:55.021Z,21.45
2017-11-08T00:03:29.748Z,14.13
2017-11-08T00:04:04.457Z,25.37
2017-11-08T00:04:39.258Z,22.05
2017-11-08T00:05:16.070Z,13.13
2017-11-08T00:05:50.790Z,17.73
2017-11-08T00:06:25.551Z,22.55
2017-11-08T00:07:00.713Z,19.23
2017-11-08T00:07:35.431Z,13.88
2017-11-08T00:08:10.154Z,14.90
2017-11-08T00:08:44.876Z,20.02
2017-11-08T00:09:19.603Z,20.23
2017-11-08T00:09:54.366Z,25.33
2017-11-08T00:10:29.268Z,19.45
2017-11-08T00:11:04.027Z,18.70
2017-11-08T00:11:38.751Z,16.55
2017-11-08T00:12:13.546Z,14.87
2017-11-08T00:12:48.508Z,21.27
2017-11-08T00:13:23.236Z,21.35
2017-11-08T00:13:57.958Z,23.60
2017-11-08T00:14:32.689Z,21.98
2017-11-08T00:15:07.678Z,17.40
2017-11-08T00:16:43.836Z,17.60
2017-11-08T00:17:18.890Z,21.95
2017-11-08T00:17:54.502Z,20.62
2017-11-08T00:18:29.216Z,18.65
2017-11-08T00:19:04.134Z,15.50
2017-11-08T00:19:38.856Z,18.37
2017-11-08T00:20:13.611Z,16.52
2017-11-08T00:20:48.313Z,17.55
2017-11-08T00:21:37.737Z,18.37
2017-11-08T00:22:14.457Z,20.25
2017-11-08T00:22:49.188Z,19.75
2017-11-08T00:23:26.579Z,18.05
2017-11-08T00:24:01.297Z,16.95
2017-11-08T00:24:36.012Z,19.27
2017-11-08T00:25:10.831Z,18.42
2017-11-08T00:25:45.571Z,21.85
2017-11-08T00:26:20.292Z,15.82
2017-11-08T00:26:55.007Z,19.33
2017-11-08T00:27:29.723Z,16.98
2017-11-08T00:28:04.728Z,18.42
2017-11-08T00:28:39.267Z,19.70
2017-11-08T00:29:13.816Z,24.42
2017-11-08T00:29:48.526Z,24.65
2017-11-08T00:30:23.239Z,24.20
2017-11-08T00:30:57.951Z,18.02
2017-11-08T00:31:32.660Z,20.45
2017-11-08T00:32:07.401Z,19.90
2017-11-08T00:32:42.516Z,15.77
2017-11-08T00:33:17.575Z,22.77
2017-11-08T00:33:52.336Z,19.23
2017-11-08T00:34:27.056Z,19.90
2017-11-08T00:35:01.773Z,21.85
2017-11-08T00:35:36.352Z,22.95
2017-11-08T00:36:11.088Z,20.70
2017-11-08T00:36:45.822Z,20.83
2017-11-08T00:37:20.604Z,21.23
2017-11-08T00:37:55.386Z,25.48
2017-11-08T00:38:30.151Z,22.92
2017-11-08T00:39:04.514Z,25.55
2017-11-08T00:39:39.253Z,18.48
2017-11-08T00:40:14.004Z,22.33
2017-11-08T00:40:48.724Z,19.17
2017-11-08T00:41:23.448Z,15.98
2017-11-08T00:41:58.180Z,21.65
2017-11-08T00:42:32.896Z,21.20
2017-11-08T00:43:07.640Z,28.38
2017-11-08T00:43:42.390Z,20.85
2017-11-08T00:44:17.103Z,23.48
2017-11-08T00:44:51.823Z,23.95
2017-11-08T00:45:26.546Z,24.42
2017-11-08T00:46:01.273Z,20.25
2017-11-08T00:46:35.991Z,24.10
2017-11-08T00:47:10.706Z,21.67
2017-11-08T00:47:45.453Z,20.52
2017-11-08T00:48:20.177Z,24.33
2017-11-08T00:48:55.249Z,20.73
2017-11-08T00:49:29.967Z,20.48
2017-11-08T00:50:04.367Z,24.05
2017-11-08T00:50:39.085Z,25.10
2017-11-08T00:51:13.456Z,23.50
2017-11-08T00:51:48.167Z,25.40
2017-11-08T00:52:22.899Z,21.37
2017-11-08T00:52:57.617Z,24.65
2017-11-08T00:53:32.361Z,25.33
2017-11-08T00:54:07.097Z,22.45
2017-11-08T00:54:41.849Z,20.35
2017-11-08T00:55:16.592Z,24.65
2017-11-08T00:55:51.321Z,24.33
2017-11-08T00:56:26.052Z,22.17
2017-11-08T00:57:00.797Z,21.83
2017-11-08T00:57:37.169Z,24.45
2017-11-08T00:58:14.875Z,24.83
2017-11-08T00:58:49.590Z,26.35
2017-11-08T00:59:24.333Z,23.42
2017-11-08T00:59:59.832Z,25.92
2017-11-08T01:00:34.601Z,22.95
2017-11-08T01:01:09.333Z,27.35
2017-11-08T01:01:44.050Z,25.20
2017-11-08T01:02:18.794Z,28.02
2017-11-08T01:02:53.503Z,32.20
2017-11-08T01:03:28.216Z,32.72
2017-11-08T01:04:02.959Z,26.20
2017-11-08T01:04:37.673Z,30.42
2017-11-08T01:05:12.425Z,30.10
2017-11-08T01:05:47.150Z,27.27
2017-11-08T01:06:21.864Z,30.45
2017-11-08T01:06:56.602Z,27.08
2017-11-08T01:07:31.316Z,27.02
2017-11-08T01:08:06.032Z,35.65
2017-11-08T01:08:40.747Z,33.53
2017-11-08T01:09:15.469Z,36.13
2017-11-08T01:09:50.191Z,29.02
2017-11-08T01:10:24.935Z,30.12
2017-11-08T01:10:59.652Z,29.80
2017-11-08T01:11:34.372Z,35.67
2017-11-08T01:12:09.153Z,34.03
2017-11-08T01:12:43.870Z,39.72
2017-11-08T01:13:18.607Z,31.58
2017-11-08T01:13:53.334Z,31.85
2017-11-08T01:14:28.039Z,30.80
2017-11-08T01:15:02.760Z,30.67
2017-11-08T01:15:37.825Z,34.95
2017-11-08T01:16:12.361Z,31.33
2017-11-08T01:16:47.094Z,37.05
2017-11-08T01:17:21.823Z,33.88
2017-11-08T01:17:56.550Z,42.58
2017-11-08T01:18:31.087Z,33.70
2017-11-08T01:19:05.800Z,35.50
2017-11-08T01:19:40.529Z,40.42
2017-11-08T01:20:15.275Z,37.13
2017-11-08T01:20:50.357Z,32.92
2017-11-08T01:21:25.084Z,37.50
2017-11-08T01:21:59.818Z,35.65
2017-11-08T01:22:34.524Z,35.53
2017-11-08T01:23:09.230Z,30.05
2017-11-08T01:23:43.928Z,34.42
2017-11-08T01:24:18.635Z,29.30
2017-11-08T01:24:53.951Z,33.00
2017-11-08T01:25:28.661Z,35.58
2017-11-08T01:26:03.411Z,39.28
2017-11-08T01:26:38.119Z,37.90
2017-11-08T01:27:12.827Z,31.15
2017-11-08T01:27:47.609Z,37.13
2017-11-08T01:28:22.318Z,35.35
2017-11-08T01:28:57.036Z,37.20
2017-11-08T01:29:31.797Z,39.67
2017-11-08T01:30:06.509Z,40.72
2017-11-08T01:30:41.217Z,33.47
2017-11-08T01:31:15.936Z,34.30
2017-11-08T01:31:50.649Z,35.80
2017-11-08T01:32:25.389Z,36.40
2017-11-08T01:33:00.103Z,33.97
2017-11-08T01:33:34.851Z,43.67
2017-11-08T01:34:09.572Z,35.85
2017-11-08T01:34:44.615Z,34.90
2017-11-08T01:35:22.183Z,38.33
2017-11-08T01:35:56.916Z,32.90
2017-11-08T01:36:31.628Z,34.90
2017-11-08T01:37:11.887Z,37.78
2017-11-08T01:37:46.587Z,31.25
2017-11-08T01:38:21.316Z,40.75
2017-11-08T01:38:56.033Z,35.17
2017-11-08T01:39:30.779Z,35.10
2017-11-08T01:40:09.401Z,37.70
2017-11-08T01:40:43.949Z,38.88
2017-11-08T01:41:24.563Z,37.42
2017-11-08T01:42:04.873Z,46.17
2017-11-08T01:42:39.288Z,38.13
2017-11-08T01:43:14.003Z,34.10
2017-11-08T01:43:48.741Z,34.83
2017-11-08T01:44:26.014Z,37.22
2017-11-08T01:45:00.724Z,37.45
2017-11-08T01:45:35.464Z,36.33
2017-11-08T01:46:10.190Z,39.83
2017-11-08T01:46:45.213Z,41.78
2017-11-08T01:47:19.932Z,37.17
2017-11-08T01:47:59.626Z,38.65
2017-11-08T01:48:34.365Z,35.70
2017-11-08T01:49:08.746Z,38.92
2017-11-08T01:49:43.446Z,50.97
2017-11-08T01:50:18.164Z,45.00
2017-11-08T01:50:52.881Z,40.42
2017-11-08T01:51:27.599Z,35.65
2017-11-08T01:52:07.406Z,43.78
2017-11-08T01:52:42.123Z,38.40
2017-11-08T01:53:16.900Z,41.00
2017-11-08T01:53:51.639Z,37.65
2017-11-08T01:54:26.356Z,40.97
2017-11-08T01:55:01.114Z,37.72
2017-11-08T01:55:38.409Z,43.38
2017-11-08T01:56:12.861Z,41.08
2017-11-08T01:56:47.286Z,44.58
2017-11-08T01:57:22.035Z,46.25
2017-11-08T01:57:56.415Z,42.47
2017-11-08T01:58:30.789Z,44.00
2017-11-08T01:59:05.155Z,48.70
2017-11-08T01:59:39.540Z,40.28
2017-11-08T02:00:14.281Z,39.88
2017-11-08T02:00:48.649Z,44.85
2017-11-08T02:01:23.406Z,35.05
2017-11-08T02:01:58.142Z,32.70
2017-11-08T02:02:32.885Z,42.80
2017-11-08T02:03:07.314Z,50.75
2017-11-08T02:03:42.031Z,43.70
2017-11-08T02:04:16.771Z,41.63
2017-11-08T02:04:51.507Z,44.72
2017-11-08T02:05:26.237Z,41.75
2017-11-08T02:06:00.964Z,43.55
2017-11-08T02:06:35.713Z,38.92
2017-11-08T02:07:10.477Z,42.72
2017-11-08T02:07:45.219Z,40.60
2017-11-08T02:08:19.971Z,38.55
2017-11-08T02:08:54.671Z,43.33
2017-11-08T02:09:29.411Z,40.45
2017-11-08T02:10:03.599Z,48.58
2017-11-08T02:10:38.319Z,38.58
2017-11-08T02:11:13.039Z,40.70
2017-11-08T02:11:47.774Z,37.67
2017-11-08T02:12:21.992Z,45.55
2017-11-08T02:12:56.729Z,40.63
2017-11-08T02:13:31.468Z,42.40
2017-11-08T02:14:06.216Z,43.03
2017-11-08T02:14:40.924Z,47.40
2017-11-08T02:15:15.626Z,48.20
2017-11-08T02:15:51.258Z,45.55
2017-11-08T02:16:25.976Z,40.85
2017-11-08T02:17:00.849Z,46.50
2017-11-08T02:17:37.419Z,42.47
2017-11-08T02:18:17.865Z,45.85
2017-11-08T02:18:54.422Z,45.05
2017-11-08T02:19:28.835Z,39.85
2017-11-08T02:20:04.803Z,55.30
2017-11-08T02:20:39.180Z,47.40
2017-11-08T02:21:13.549Z,48.97
2017-11-08T02:21:48.265Z,45.28
2017-11-08T02:22:22.650Z,42.80
2017-11-08T02:22:57.014Z,49.33
2017-11-08T02:23:32.171Z,42.83
2017-11-08T02:24:06.578Z,43.38
2017-11-08T02:24:40.955Z,48.08
2017-11-08T02:25:15.353Z,47.47
2017-11-08T02:25:49.737Z,53.53
2017-11-08T02:26:29.780Z,52.83
2017-11-08T02:27:05.834Z,53.95
2017-11-08T02:27:40.200Z,44.25
2017-11-08T02:28:17.399Z,48.80
2017-11-08T02:28:51.793Z,51.50
2017-11-08T02:29:28.580Z,49.40
2017-11-08T02:30:03.024Z,44.38
2017-11-08T02:30:37.910Z,46.30
2017-11-08T02:31:13.236Z,45.72
2017-11-08T02:31:47.614Z,48.35
2017-11-08T02:32:21.987Z,52.78
2017-11-08T02:32:56.403Z,47.72
2017-11-08T02:33:32.492Z,50.70
2017-11-08T02:34:06.890Z,44.95
2017-11-08T02:34:41.316Z,53.33
2017-11-08T02:35:15.679Z,50.65
2017-11-08T02:35:50.441Z,50.12
2017-11-08T02:36:24.854Z,51.30
2017-11-08T02:36:59.556Z,50.35
2017-11-08T02:37:37.148Z,49.58
2017-11-08T02:38:14.089Z,51.28
2017-11-08T02:38:48.820Z,56.33
2017-11-08T02:39:23.547Z,46.20
2017-11-08T02:39:58.262Z,51.83
2017-11-08T02:40:32.969Z,44.15
2017-11-08T02:41:07.740Z,43.72
2017-11-08T02:41:42.826Z,49.17
2017-11-08T02:42:17.561Z,53.17
2017-11-08T02:42:52.288Z,46.63
2017-11-08T02:43:27.041Z,47.92
2017-11-08T02:44:01.778Z,47.22
2017-11-08T02:44:36.512Z,41.70
2017-11-08T02:45:10.887Z,52.30
2017-11-08T02:45:46.417Z,38.72
2017-11-08T02:46:25.881Z,49.90
2017-11-08T02:47:00.631Z,39.45
2017-11-08T02:47:35.332Z,47.58
2017-11-08T02:48:09.691Z,46.47
2017-11-08T02:48:44.408Z,41.85
2017-11-08T02:49:19.118Z,52.17
2017-11-08T02:49:53.820Z,46.80
2017-11-08T02:50:28.596Z,53.38
2017-11-08T02:51:03.441Z,56.72
2017-11-08T02:51:37.833Z,41.25
2017-11-08T02:52:12.596Z,51.37
2017-11-08T02:52:47.325Z,50.55
2017-11-08T02:53:21.987Z,49.47
2017-11-08T02:53:56.701Z,45.55
2017-11-08T02:54:31.438Z,46.72
2017-11-08T02:55:11.859Z,48.42
2017-11-08T02:55:46.952Z,53.33
2017-11-08T02:56:21.686Z,54.33
2017-11-08T02:56:56.424Z,52.62
2017-11-08T02:57:31.192Z,45.67
2017-11-08T02:58:05.935Z,54.22
2017-11-08T02:58:41.592Z,43.95
2017-11-08T02:59:16.321Z,44.50
2017-11-08T02:59:51.060Z,46.00
2017-11-08T03:00:25.790Z,44.05
2017-11-08T03:01:00.539Z,57.15
2017-11-08T03:01:35.252Z,53.85
2017-11-08T03:02:11.957Z,54.15
2017-11-08T03:02:50.646Z,42.62
2017-11-08T03:03:25.352Z,47.65
2017-11-08T03:04:02.890Z,55.40
2017-11-08T03:04:43.260Z,41.72
2017-11-08T03:05:17.792Z,51.83
2017-11-08T03:05:52.506Z,48.60
2017-11-08T03:06:27.214Z,54.15
2017-11-08T03:07:01.939Z,49.33
2017-11-08T03:07:36.660Z,45.92
2017-11-08T03:08:11.555Z,53.80
2017-11-08T03:08:46.265Z,44.47
2017-11-08T03:09:20.981Z,49.17
2017-11-08T03:09:55.715Z,46.55
2017-11-08T03:10:30.415Z,45.85
2017-11-08T03:11:05.743Z,51.92
2017-11-08T03:11:40.478Z,48.38
2017-11-08T03:12:15.217Z,53.08
2017-11-08T03:12:49.942Z,47.58
2017-11-08T03:13:25.021Z,46.28
2017-11-08T03:13:59.729Z,47.83
2017-11-08T03:14:34.447Z,50.58
2017-11-08T03:15:09.776Z,47.65
2017-11-08T03:15:44.507Z,52.83
2017-11-08T03:16:19.250Z,53.90
2017-11-08T03:16:53.982Z,51.03
2017-11-08T03:17:28.818Z,50.65
2017-11-08T03:18:03.557Z,48.60
2017-11-08T03:18:38.303Z,51.40
2017-11-08T03:19:13.023Z,56.05
2017-11-08T03:19:47.739Z,56.83
2017-11-08T03:20:22.546Z,51.30
2017-11-08T03:20:57.279Z,59.13
2017-11-08T03:21:32.018Z,46.10
2017-11-08T03:22:06.736Z,52.95
2017-11-08T03:22:41.444Z,53.90
2017-11-08T03:23:16.217Z,49.85
2017-11-08T03:23:51.223Z,57.92
2017-11-08T03:24:25.944Z,54.00
2017-11-08T03:25:00.811Z,63.60
2017-11-08T03:25:35.526Z,51.75
2017-11-08T03:26:10.238Z,52.45
2017-11-08T03:26:44.972Z,56.53
2017-11-08T03:27:19.691Z,48.25
2017-11-08T03:27:54.423Z,61.10
2017-11-08T03:28:29.126Z,54.80
2017-11-08T03:29:03.904Z,57.50
2017-11-08T03:29:38.341Z,57.40
2017-11-08T03:30:13.054Z,52.53
2017-11-08T03:30:47.768Z,56.17
2017-11-08T03:31:22.499Z,51.72
2017-11-08T03:31:57.211Z,62.10
2017-11-08T03:32:32.699Z,67.00
2017-11-08T03:33:07.416Z,59.47
2017-11-08T03:33:42.135Z,51.22
2017-11-08T03:34:17.164Z,56.65
2017-11-08T03:34:51.871Z,53.50
2017-11-08T03:35:26.244Z,51.58
2017-11-08T03:36:00.610Z,54.67
2017-11-08T03:36:34.992Z,53.10
2017-11-08T03:37:09.367Z,58.95
2017-11-08T03:37:43.727Z,57.10
2017-11-08T03:38:18.508Z,60.95
2017-11-08T03:38:53.224Z,61.63
2017-11-08T03:39:28.244Z,62.60
2017-11-08T03:40:02.944Z,56.65
2017-11-08T03:40:37.709Z,57.80
2017-11-08T03:41:12.424Z,66.78
2017-11-08T03:41:47.137Z,60.85
2017-11-08T03:42:21.940Z,59.40
2017-11-08T03:42:56.683Z,54.50
2017-11-08T03:43:31.409Z,62.38
2017-11-08T03:44:06.137Z,57.65
2017-11-08T03:44:40.887Z,56.65
2017-11-08T03:45:15.597Z,60.83
2017-11-08T03:45:50.309Z,67.12
2017-11-08T03:46:25.036Z,55.72
2017-11-08T03:46:59.819Z,63.92
2017-11-08T03:47:34.573Z,60.85
2017-11-08T03:48:09.296Z,54.83
2017-11-08T03:48:44.008Z,62.08
2017-11-08T03:49:18.744Z,68.03
2017-11-08T03:49:53.309Z,61.47
2017-11-08T03:50:28.035Z,61.00
2017-11-08T03:51:02.845Z,58.92
2017-11-08T03:51:37.211Z,67.12
2017-11-08T03:52:11.948Z,64.55
2017-11-08T03:52:46.672Z,69.20
2017-11-08T03:53:21.379Z,59.85
2017-11-08T03:53:59.929Z,57.67
2017-11-08T03:54:34.660Z,64.43
2017-11-08T03:55:09.422Z,61.20
2017-11-08T03:55:44.135Z,59.30
2017-11-08T03:56:18.854Z,63.17
2017-11-08T03:56:53.583Z,59.65
2017-11-08T03:57:28.307Z,66.37
2017-11-08T03:58:03.087Z,63.45
2017-11-08T03:58:37.871Z,63.72
2017-11-08T03:59:12.571Z,68.47
2017-11-08T03:59:47.288Z,65.32
2017-11-08T04:00:22.041Z,61.05
2017-11-08T04:00:56.756Z,57.13
2017-11-08T04:01:31.621Z,57.38
2017-11-08T04:02:06.346Z,71.05
2017-11-08T04:02:41.061Z,68.85
2017-11-08T04:03:15.624Z,61.60
2017-11-08T04:03:50.337Z,56.47
2017-11-08T04:04:26.582Z,56.63
2017-11-08T04:05:02.174Z,64.75
2017-11-08T04:05:37.259Z,58.17
2017-11-08T04:06:11.966Z,64.68
2017-11-08T04:06:47.485Z,77.82
2017-11-08T04:07:22.278Z,59.63
2017-11-08T04:07:57.040Z,62.60
2017-11-08T04:08:32.078Z,64.05
2017-11-08T04:09:06.790Z,62.58
2017-11-08T04:09:41.493Z,59.83
2017-11-08T04:10:16.211Z,59.53
2017-11-08T04:10:51.017Z,57.95
2017-11-08T04:11:25.733Z,59.97
2017-11-08T04:12:00.467Z,61.37
2017-11-08T04:12:35.182Z,59.17
2017-11-08T04:13:09.735Z,60.17
2017-11-08T04:13:44.452Z,61.10
2017-11-08T04:14:19.177Z,53.25
2017-11-08T04:14:54.144Z,62.58
2017-11-08T04:15:28.855Z,63.75
2017-11-08T04:16:03.918Z,60.20
2017-11-08T04:16:38.639Z,61.28
2017-11-08T04:17:13.378Z,61.42
2017-11-08T04:17:47.968Z,67.47
2017-11-08T04:18:22.530Z,57.65
2017-11-08T04:18:57.248Z,60.28
2017-11-08T04:19:32.101Z,62.55
2017-11-08T04:20:06.846Z,66.30
2017-11-08T04:20:41.557Z,64.05
2017-11-08T04:21:16.248Z,63.00
2017-11-08T04:21:50.632Z,60.12
2017-11-08T04:22:25.056Z,61.47
2017-11-08T04:22:59.836Z,61.58
2017-11-08T04:23:34.551Z,63.17
2017-11-08T04:24:09.272Z,61.17
2017-11-08T04:24:44.006Z,65.55
2017-11-08T04:25:18.725Z,64.35
2017-11-08T04:25:53.097Z,63.50
2017-11-08T04:26:28.083Z,58.08
2017-11-08T04:27:02.796Z,53.00
2017-11-08T04:27:37.542Z,59.97
2017-11-08T04:28:12.271Z,64.15
2017-11-08T04:28:47.007Z,52.83
2017-11-08T04:29:21.725Z,62.95
2017-11-08T04:29:56.439Z,56.35
2017-11-08T04:30:31.156Z,66.40
2017-11-08T04:31:05.869Z,53.97
2017-11-08T04:31:40.607Z,62.30
2017-11-08T04:32:15.525Z,63.58
2017-11-08T04:32:50.253Z,59.90
2017-11-08T04:33:25.090Z,68.28
2017-11-08T04:33:59.814Z,61.95
2017-11-08T04:34:34.531Z,54.33
2017-11-08T04:35:09.250Z,55.72
2017-11-08T04:35:43.970Z,61.72
2017-11-08T04:36:18.800Z,60.67
2017-11-08T04:36:53.524Z,60.90
2017-11-08T04:37:28.230Z,65.55
2017-11-08T04:38:02.973Z,58.65
2017-11-08T04:38:37.712Z,62.42
2017-11-08T04:39:12.409Z,59.63
2017-11-08T04:39:47.119Z,60.08
2017-11-08T04:40:21.830Z,59.70
2017-11-08T04:40:56.544Z,69.00
2017-11-08T04:41:31.272Z,58.25
2017-11-08T04:42:06.043Z,61.33
2017-11-08T04:42:40.770Z,57.95
2017-11-08T04:43:15.488Z,58.92
2017-11-08T04:43:50.198Z,65.30
2017-11-08T04:44:25.180Z,66.85
2017-11-08T04:44:59.901Z,67.32
2017-11-08T04:45:34.324Z,70.82
2017-11-08T04:46:08.763Z,62.80
2017-11-08T04:46:43.474Z,65.45
2017-11-08T04:47:18.215Z,67.32
2017-11-08T04:47:52.948Z,67.45
2017-11-08T04:48:27.662Z,66.20
2017-11-08T04:49:02.379Z,72.60
2017-11-08T04:49:37.098Z,76.75
2017-11-08T04:50:11.835Z,74.18
2017-11-08T04:50:46.543Z,78.25
2017-11-08T04:51:21.265Z,71.03
2017-11-08T04:51:55.973Z,81.60
2017-11-08T04:52:31.033Z,85.03
2017-11-08T04:53:05.736Z,86.70
2017-11-08T04:53:40.488Z,77.15
2017-11-08T04:54:15.204Z,83.72
2017-11-08T04:54:49.739Z,69.87
2017-11-08T04:55:24.266Z,78.85
2017-11-08T04:55:59.297Z,78.57
2017-11-08T04:56:34.018Z,75.32
2017-11-08T04:57:08.544Z,76.37
2017-11-08T04:57:43.140Z,84.05
2017-11-08T04:58:17.864Z,82.53
2017-11-08T04:58:52.575Z,75.90
2017-11-08T04:59:27.280Z,86.85
2017-11-08T05:00:01.993Z,83.40
2017-11-08T05:00:36.528Z,91.00
2017-11-08T05:01:11.259Z,86.55
2017-11-08T05:01:45.963Z,83.70
2017-11-08T05:02:20.679Z,78.30
2017-11-08T05:02:55.432Z,85.93
2017-11-08T05:03:29.947Z,84.22
2017-11-08T05:04:04.656Z,78.07
2017-11-08T05:04:39.371Z,81.80
2017-11-08T05:05:14.081Z,81.78
2017-11-08T05:05:48.795Z,90.53
2017-11-08T05:06:23.614Z,83.87
2017-11-08T05:06:58.330Z,71.70
2017-11-08T05:07:33.047Z,89.75
2017-11-08T05:08:07.796Z,89.60
2017-11-08T05:08:42.503Z,83.22
2017-11-08T05:09:17.215Z,86.45
2017-11-08T05:09:52.440Z,94.10
2017-11-08T05:10:27.155Z,90.47
2017-11-08T05:11:02.381Z,90.43
2017-11-08T05:11:37.091Z,85.65
2017-11-08T05:12:11.798Z,87.12
2017-11-08T05:12:46.518Z,75.87
2017-11-08T05:13:21.634Z,89.82
2017-11-08T05:13:56.342Z,80.85
2017-11-08T05:15:13.305Z,91.75
2017-11-08T05:15:48.024Z,79.15
2017-11-08T05:16:22.795Z,86.65
2017-11-08T05:16:57.507Z,82.65
2017-11-08T05:17:32.233Z,86.75
2017-11-08T05:18:06.961Z,75.07
2017-11-08T05:18:41.739Z,77.18
2017-11-08T05:19:16.465Z,83.05
2017-11-08T05:19:51.181Z,83.45
2017-11-08T05:20:25.892Z,92.62
2017-11-08T05:21:00.603Z,95.35
2017-11-08T05:21:35.326Z,100.22
2017-11-08T05:22:10.039Z,83.37
2017-11-08T05:22:44.751Z,98.07
2017-11-08T05:23:19.465Z,91.35
2017-11-08T05:23:54.206Z,104.40
2017-11-08T05:24:28.920Z,93.78
2017-11-08T05:25:03.697Z,87.75
2017-11-08T05:25:38.416Z,99.03
2017-11-08T05:26:13.120Z,105.50
2017-11-08T05:26:47.846Z,102.12
2017-11-08T05:27:22.542Z,100.40
2017-11-08T05:27:57.275Z,105.30
2017-11-08T05:28:32.015Z,99.72
2017-11-08T05:29:07.111Z,102.30
2017-11-08T05:29:41.823Z,100.12
2017-11-08T05:30:16.583Z,91.43
2017-11-08T05:30:51.333Z,96.78
2017-11-08T05:31:26.109Z,95.93
2017-11-08T05:32:00.828Z,95.53
2017-11-08T05:32:35.603Z,100.43
2017-11-08T05:33:10.388Z,102.43
2017-11-08T05:33:45.096Z,97.53
2017-11-08T05:34:19.851Z,100.05
2017-11-08T05:34:54.571Z,100.47
2017-11-08T05:35:29.311Z,101.47
2017-11-08T05:36:03.691Z,104.03
2017-11-08T05:36:38.419Z,111.12
2017-11-08T05:37:13.183Z,99.82
2017-11-08T05:37:47.994Z,104.78
2017-11-08T05:38:22.702Z,103.53
2017-11-08T05:38:57.440Z,92.90
2017-11-08T05:39:32.773Z,109.55
2017-11-08T05:40:07.529Z,96.15
2017-11-08T05:40:42.284Z,101.82
2017-11-08T05:41:17.012Z,99.50
2017-11-08T05:41:57.683Z,104.15
2017-11-08T05:42:32.436Z,107.80
2017-11-08T05:43:07.283Z,100.15
2017-11-08T05:43:41.979Z,105.10
2017-11-08T05:44:16.687Z,97.75
2017-11-08T05:44:51.469Z,98.32
2017-11-08T05:45:26.222Z,106.65
2017-11-08T05:46:00.984Z,105.43
2017-11-08T05:46:35.515Z,100.95
2017-11-08T05:47:10.244Z,110.82
2017-11-08T05:47:44.963Z,103.38
2017-11-08T05:48:19.373Z,102.68
2017-11-08T05:48:54.087Z,108.82
2017-11-08T05:49:28.606Z,111.70
2017-11-08T05:50:03.391Z,102.95
2017-11-08T05:50:38.119Z,111.78
2017-11-08T05:51:12.841Z,119.50
2017-11-08T05:51:47.565Z,107.53
2017-11-08T05:52:22.333Z,105.20
2017-11-08T05:52:57.053Z,112.82
2017-11-08T05:53:31.638Z,107.32
2017-11-08T05:54:06.179Z,116.68
2017-11-08T05:54:40.932Z,107.18
2017-11-08T05:55:15.986Z,107.32
2017-11-08T05:55:50.709Z,109.40
2017-11-08T05:56:25.477Z,116.60
2017-11-08T05:57:00.228Z,102.75
2017-11-08T05:57:35.012Z,109.72
2017-11-08T05:58:09.818Z,111.90
2017-11-08T05:58:44.544Z,101.62
2017-11-08T05:59:19.278Z,118.57
2017-11-08T05:59:53.996Z,111.28
2017-11-08T06:00:28.782Z,111.53
2017-11-08T06:01:03.509Z,121.62
2017-11-08T06:01:38.240Z,104.60
2017-11-08T06:02:12.955Z,112.75
2017-11-08T06:02:47.741Z,114.82
2017-11-08T06:03:22.482Z,112.00
2017-11-08T06:03:57.264Z,107.40
2017-11-08T06:04:31.983Z,111.93
2017-11-08T06:05:06.700Z,118.40
2017-11-08T06:05:41.519Z,122.50
2017-11-08T06:06:16.254Z,114.07
2017-11-08T06:06:50.984Z,102.35
2017-11-08T06:07:25.706Z,106.57
2017-11-08T06:08:00.458Z,109.90
2017-11-08T06:08:35.176Z,110.07
2017-11-08T06:09:09.892Z,106.82
2017-11-08T06:09:44.668Z,99.50
2017-11-08T06:10:19.434Z,110.07
2017-11-08T06:10:54.180Z,106.82
2017-11-08T06:11:28.908Z,113.20
2017-11-08T06:12:03.638Z,98.03
2017-11-08T06:12:38.380Z,104.95
2017-11-08T06:13:13.165Z,104.43
2017-11-08T06:13:47.907Z,101.15
2017-11-08T06:14:22.611Z,99.90
2017-11-08T06:14:57.445Z,90.03
2017-11-08T06:15:32.291Z,93.03
2017-11-08T06:16:07.036Z,95.85
2017-11-08T06:16:41.789Z,103.07
2017-11-08T06:17:16.519Z,96.85
2017-11-08T06:17:51.247Z,98.00
2017-11-08T06:18:25.964Z,87.90
2017-11-08T06:19:00.693Z,97.00
2017-11-08T06:19:35.486Z,94.93
2017-11-08T06:20:10.228Z,95.60
2017-11-08T06:20:45.039Z,91.82
2017-11-08T06:21:19.444Z,95.12
2017-11-08T06:21:54.156Z,99.55
2017-11-08T06:22:28.954Z,87.68
2017-11-08T06:23:03.791Z,86.25
2017-11-08T06:23:41.500Z,91.07
2017-11-08T06:24:16.396Z,89.65
2017-11-08T06:24:51.115Z,88.72
2017-11-08T06:25:25.831Z,86.82
2017-11-08T06:26:03.302Z,90.70
2017-11-08T06:26:38.926Z,80.70
2017-11-08T06:27:13.478Z,85.05
2017-11-08T06:27:48.390Z,89.43
2017-11-08T06:28:23.127Z,88.40
2017-11-08T06:28:57.877Z,90.62
2017-11-08T06:29:32.603Z,94.65
2017-11-08T06:30:07.334Z,88.37
2017-11-08T06:30:42.072Z,92.97
2017-11-08T06:31:16.812Z,86.60
2017-11-08T06:31:51.865Z,87.82
2017-11-08T06:32:26.633Z,94.15
2017-11-08T06:33:01.344Z,85.05
2017-11-08T06:33:36.067Z,84.15
2017-11-08T06:34:10.790Z,84.18
2017-11-08T06:34:45.508Z,84.30
2017-11-08T06:35:20.234Z,90.03
2017-11-08T06:35:54.957Z,93.90
2017-11-08T06:36:29.764Z,77.47
2017-11-08T06:37:04.504Z,83.97
2017-11-08T06:37:39.223Z,82.97
2017-11-08T06:38:13.929Z,76.00
2017-11-08T06:38:48.647Z,90.20
2017-11-08T06:39:23.373Z,78.50
2017-11-08T06:39:58.156Z,79.62
2017-11-08T06:40:32.882Z,86.25
2017-11-08T06:41:07.615Z,83.30
2017-11-08T06:41:42.401Z,88.68
2017-11-08T06:42:17.159Z,71.95
2017-11-08T06:42:51.887Z,91.72
2017-11-08T06:43:26.642Z,87.40
2017-11-08T06:44:01.350Z,81.65
2017-11-08T06:44:36.073Z,79.95
2017-11-08T06:45:10.795Z,92.22
2017-11-08T06:45:45.547Z,118.80
2017-11-08T06:46:19.932Z,105.72
2017-11-08T06:46:54.649Z,87.35
2017-11-08T06:47:29.725Z,80.07
2017-11-08T06:48:04.435Z,76.35
2017-11-08T06:48:39.168Z,85.12
2017-11-08T06:49:13.896Z,74.90
2017-11-08T06:49:48.594Z,78.30
2017-11-08T06:50:23.327Z,79.87
2017-11-08T06:50:59.862Z,78.68
2017-11-08T06:51:35.576Z,76.32
2017-11-08T06:52:10.285Z,78.57
2017-11-08T06:52:44.843Z,77.47
2017-11-08T06:53:19.556Z,69.75
2017-11-08T06:53:54.279Z,80.65
2017-11-08T06:54:29.000Z,85.10
2017-11-08T06:55:03.788Z,77.85
2017-11-08T06:55:38.521Z,82.72
2017-11-08T06:56:13.255Z,85.28
2017-11-08T06:56:47.957Z,91.65
2017-11-08T06:57:22.517Z,84.07
2017-11-08T06:57:57.279Z,81.87
2017-11-08T06:58:31.976Z,80.95
2017-11-08T06:59:06.694Z,83.60
2017-11-08T06:59:41.427Z,77.12
2017-11-08T07:00:16.143Z,80.90
2017-11-08T07:00:50.879Z,75.95
2017-11-08T07:01:25.594Z,75.60
2017-11-08T07:02:00.316Z,80.85
2017-11-08T07:02:35.039Z,73.50
2017-11-08T07:03:11.087Z,72.90
2017-11-08T07:03:45.796Z,76.90
2017-11-08T07:04:20.546Z,69.15
2017-11-08T07:04:55.267Z,75.50
2017-11-08T07:05:29.980Z,80.70
2017-11-08T07:06:04.636Z,72.55
2017-11-08T07:06:39.351Z,77.28
2017-11-08T07:07:14.828Z,81.15
2017-11-08T07:07:49.546Z,82.03
2017-11-08T07:08:24.306Z,73.93
2017-11-08T07:08:59.074Z,70.50
2017-11-08T07:09:33.796Z,68.93
2017-11-08T07:10:08.515Z,71.80
2017-11-08T07:10:43.229Z,67.22
2017-11-08T07:11:17.966Z,65.93
2017-11-08T07:11:52.676Z,80.40
2017-11-08T07:12:27.422Z,75.43
2017-11-08T07:13:02.148Z,80.03
2017-11-08T07:13:36.898Z,74.55
2017-11-08T07:14:11.627Z,73.75
2017-11-08T07:14:46.375Z,75.93
2017-11-08T07:15:21.096Z,76.37
2017-11-08T07:15:55.840Z,73.80
2017-11-08T07:16:30.566Z,74.40
2017-11-08T07:17:05.303Z,72.35
2017-11-08T07:17:40.195Z,75.43
2017-11-08T07:18:14.927Z,65.70
2017-11-08T07:18:49.990Z,75.70
2017-11-08T07:19:24.698Z,74.30
2017-11-08T07:19:59.434Z,75.53
2017-11-08T07:20:34.158Z,80.43
2017-11-08T07:21:08.888Z,73.60
2017-11-08T07:21:43.608Z,69.68
2017-11-08T07:22:18.331Z,67.65
2017-11-08T07:22:53.163Z,68.03
2017-11-08T07:23:27.907Z,80.85
2017-11-08T07:24:02.811Z,68.80
2017-11-08T07:24:37.540Z,72.12
2017-11-08T07:25:12.694Z,71.47
2017-11-08T07:25:47.469Z,66.10
2017-11-08T07:26:22.225Z,74.40
2017-11-08T07:26:56.948Z,69.87
2017-11-08T07:27:31.672Z,76.62
2017-11-08T07:28:06.397Z,69.85
2017-11-08T07:28:41.102Z,75.95
2017-11-08T07:29:15.859Z,71.53
2017-11-08T07:29:50.571Z,69.78